Time;durP1;ratioP1;P1;durP2;ratioP2;P2;SDS_P1;SDS_P2;PMS_P1;PMS_P2;Temp;Humidity;BMP_temperature;BMP_pressure;BME280_temperature;BME280_humidity;BME280_pressure;Samples;Min_cycle;Max_cycle;Signal;HPM_P1;HPM_P2
2023/03/14 00:00:26;;;;;;;5.40;3.17;;;;;;;;;;772002;181;820166;-67
2023/03/14 00:02:52;;;;;;;5.20;3.60;;;;;;;;;;766516;181;918258;-67
2023/03/14 00:05:18;;;;;;;7.17;3.13;;;;;;;;;;768937;179;919199;-67
2023/03/14 00:07:44;;;;;;;5.53;3.53;;;;;;;;;;778059;180;915170;-67
2023/03/14 00:10:10;;;;;;;6.37;2.97;;;;;;;;;;766903;181;916640;-67
2023/03/14 00:12:36;;;;;;;3.70;2.03;;;;;;;;;;768817;181;918491;-67
2023/03/14 00:15:04;;;;;;;7.53;2.60;;;;;;;;;;771670;182;918907;-68
2023/03/14 00:17:29;;;;;;;5.73;2.80;;;;;;;;;;769291;182;917187;-68
2023/03/14 00:19:55;;;;;;;6.90;2.63;;;;;;;;;;773504;180;915546;-70
2023/03/14 00:22:20;;;;;;;5.80;2.47;;;;;;;;;;762401;183;918016;-69
2023/03/14 00:24:46;;;;;;;9.30;3.17;;;;;;;;;;769020;183;919283;-67
2023/03/14 00:27:12;;;;;;;4.27;2.80;;;;;;;;;;761256;182;919719;-68
2023/03/14 00:29:38;;;;;;;8.77;2.63;;;;;;;;;;761669;182;918518;-69
2023/03/14 00:32:04;;;;;;;9.17;3.43;;;;;;;;;;772639;179;920201;-67
2023/03/14 00:34:30;;;;;;;4.77;2.80;;;;;;;;;;773936;179;818597;-67
2023/03/14 00:36:55;;;;;;;8.73;3.73;;;;;;;;;;771703;179;918997;-70
2023/03/14 00:39:21;;;;;;;5.07;3.20;;;;;;;;;;774802;182;917817;-70
2023/03/14 00:41:47;;;;;;;5.83;2.73;;;;;;;;;;773676;181;814260;-67
2023/03/14 00:44:13;;;;;;;3.70;1.93;;;;;;;;;;774727;180;914148;-68
2023/03/14 00:46:39;;;;;;;6.07;2.83;;;;;;;;;;764564;182;915168;-69
2023/03/14 00:49:05;;;;;;;5.63;3.07;;;;;;;;;;771113;179;817346;-70
2023/03/14 00:51:30;;;;;;;3.77;2.70;;;;;;;;;;768843;181;919456;-67
2023/03/14 00:53:56;;;;;;;5.83;3.07;;;;;;;;;;772829;180;914958;-69
2023/03/14 00:56:22;;;;;;;5.50;2.80;;;;;;;;;;778459;181;916701;-67
2023/03/14 00:58:48;;;;;;;7.40;3.50;;;;;;;;;;771615;181;914535;-68
2023/03/14 01:01:15;;;;;;;4.30;2.33;;;;;;;;;;767363;181;942584;-68
2023/03/14 01:03:41;;;;;;;3.30;2.10;;;;;;;;;;775944;181;915416;-68
2023/03/14 01:06:09;;;;;;;5.70;2.60;;;;;;;;;;769673;182;919149;-68
2023/03/14 01:08:34;;;;;;;4.83;3.07;;;;;;;;;;765306;179;919580;-67
2023/03/14 01:11:00;;;;;;;7.00;2.90;;;;;;;;;;765890;181;919474;-72
2023/03/14 01:13:26;;;;;;;5.77;2.83;;;;;;;;;;778037;180;917369;-69
2023/03/14 01:15:52;;;;;;;8.37;3.43;;;;;;;;;;772858;181;920757;-69
2023/03/14 01:18:18;;;;;;;5.10;3.33;;;;;;;;;;771862;181;919254;-70
2023/03/14 01:20:44;;;;;;;4.50;2.70;;;;;;;;;;779412;181;731958;-66
2023/03/14 01:23:10;;;;;;;4.43;2.40;;;;;;;;;;772785;181;919381;-71
2023/03/14 01:25:35;;;;;;;4.60;2.55;;;;;;;;;;772880;181;918390;-69
2023/03/14 01:28:01;;;;;;;5.90;3.23;;;;;;;;;;774603;182;917962;-69
2023/03/14 01:30:27;;;;;;;5.95;2.75;;;;;;;;;;768361;179;918964;-69
2023/03/14 01:32:53;;;;;;;5.33;3.10;;;;;;;;;;770951;181;914923;-67
2023/03/14 01:35:19;;;;;;;4.20;2.80;;;;;;;;;;762786;180;918446;-68
2023/03/14 01:37:45;;;;;;;7.73;2.83;;;;;;;;;;776982;180;919070;-69
2023/03/14 01:40:11;;;;;;;4.30;2.57;;;;;;;;;;771627;181;912345;-67
2023/03/14 01:42:37;;;;;;;6.30;3.63;;;;;;;;;;770034;181;919479;-66
2023/03/14 01:45:02;;;;;;;6.77;3.33;;;;;;;;;;776156;181;913417;-69
2023/03/14 01:47:28;;;;;;;5.67;3.33;;;;;;;;;;773091;179;918315;-67
2023/03/14 01:50:04;;;;;;;7.73;3.00;;;;;;;;;;774194;180;919179;-66
2023/03/14 01:52:33;;;;;;;5.57;3.23;;;;;;;;;;770949;180;919269;-67
2023/03/14 01:54:58;;;;;;;10.23;3.73;;;;;;;;;;776293;180;921844;-66
2023/03/14 01:57:26;;;;;;;4.83;3.10;;;;;;;;;;769258;181;915547;-66
2023/03/14 01:59:52;;;;;;;4.70;3.03;;;;;;;;;;771117;181;939058;-69
2023/03/14 02:02:18;;;;;;;5.67;3.67;;;;;;;;;;774294;181;932981;-68
2023/03/14 02:04:43;;;;;;;15.03;3.90;;;;;;;;;;768891;179;918884;-69
2023/03/14 02:07:12;;;;;;;6.30;4.33;;;;;;;;;;768936;180;915535;-68
2023/03/14 02:09:38;;;;;;;5.40;3.30;;;;;;;;;;768167;180;927955;-69
2023/03/14 02:12:04;;;;;;;5.65;3.30;;;;;;;;;;779028;181;917909;-69
2023/03/14 02:14:30;;;;;;;7.90;3.17;;;;;;;;;;772125;181;924562;-66
2023/03/14 02:16:56;;;;;;;5.45;2.90;;;;;;;;;;773347;181;930532;-68
2023/03/14 02:19:22;;;;;;;10.77;4.63;;;;;;;;;;769463;182;916190;-65
2023/03/14 02:21:50;;;;;;;8.70;4.27;;;;;;;;;;767159;181;918765;-66
2023/03/14 02:24:17;;;;;;;9.60;4.20;;;;;;;;;;775191;181;816448;-68
2023/03/14 02:26:44;;;;;;;5.83;3.50;;;;;;;;;;775207;180;821440;-66
2023/03/14 02:29:10;;;;;;;5.00;3.80;;;;;;;;;;771844;179;918117;-65
2023/03/14 02:31:35;;;;;;;5.03;3.00;;;;;;;;;;771282;180;918169;-67
2023/03/14 02:34:01;;;;;;;7.83;4.07;;;;;;;;;;772699;180;917737;-67
2023/03/14 02:36:27;;;;;;;8.40;4.43;;;;;;;;;;777869;180;912185;-66
2023/03/14 02:38:56;;;;;;;11.53;3.70;;;;;;;;;;766640;182;903183;-66
2023/03/14 02:41:22;;;;;;;7.10;4.47;;;;;;;;;;767753;181;916089;-67
2023/03/14 02:43:48;;;;;;;8.10;2.87;;;;;;;;;;772344;180;918165;-66
2023/03/14 02:46:13;;;;;;;6.17;3.20;;;;;;;;;;766472;183;918584;-67
2023/03/14 02:48:54;;;;;;;9.75;3.97;;;;;;;;;;772183;180;918929;-67
2023/03/14 02:51:20;;;;;;;5.40;3.30;;;;;;;;;;772807;180;915673;-67
2023/03/14 02:53:46;;;;;;;5.40;3.70;;;;;;;;;;767471;180;919592;-66
2023/03/14 02:56:12;;;;;;;7.70;3.77;;;;;;;;;;772769;181;918890;-66
2023/03/14 02:58:38;;;;;;;10.50;4.03;;;;;;;;;;772723;178;920081;-68
2023/03/14 03:01:04;;;;;;;6.75;3.42;;;;;;;;;;773868;179;920652;-68
2023/03/14 03:03:29;;;;;;;4.23;2.73;;;;;;;;;;778424;180;919957;-67
2023/03/14 03:05:55;;;;;;;7.87;3.97;;;;;;;;;;775558;181;915972;-69
2023/03/14 03:08:21;;;;;;;7.05;3.72;;;;;;;;;;775915;180;918770;-68
2023/03/14 03:10:47;;;;;;;7.30;4.57;;;;;;;;;;781336;180;915394;-66
2023/03/14 03:13:13;;;;;;;8.03;4.00;;;;;;;;;;778742;180;853079;-68
2023/03/14 03:15:39;;;;;;;5.43;3.07;;;;;;;;;;775724;180;917528;-66
2023/03/14 03:18:04;;;;;;;5.80;3.60;;;;;;;;;;767987;181;916112;-67
2023/03/14 03:20:30;;;;;;;7.55;4.30;;;;;;;;;;772904;180;879742;-68
2023/03/14 03:22:56;;;;;;;6.93;3.70;;;;;;;;;;769317;181;919201;-65
2023/03/14 03:25:22;;;;;;;6.83;3.60;;;;;;;;;;771307;181;919276;-66
2023/03/14 03:27:48;;;;;;;6.00;4.00;;;;;;;;;;778295;180;910291;-66
2023/03/14 03:30:14;;;;;;;8.13;4.57;;;;;;;;;;771992;181;918668;-66
2023/03/14 03:32:40;;;;;;;6.93;3.67;;;;;;;;;;772898;181;918402;-65
2023/03/14 03:35:06;;;;;;;7.40;3.93;;;;;;;;;;778701;181;810973;-68
2023/03/14 03:37:32;;;;;;;8.60;4.50;;;;;;;;;;772729;180;918467;-68
2023/03/14 03:39:58;;;;;;;7.80;4.80;;;;;;;;;;772885;181;817910;-68
2023/03/14 03:42:24;;;;;;;6.03;3.33;;;;;;;;;;774383;181;715355;-66
2023/03/14 03:44:50;;;;;;;9.73;4.10;;;;;;;;;;775285;178;914998;-67
2023/03/14 03:47:16;;;;;;;7.00;3.20;;;;;;;;;;770343;180;890712;-68
2023/03/14 03:49:42;;;;;;;9.83;4.53;;;;;;;;;;768668;180;916461;-69
2023/03/14 03:52:08;;;;;;;6.73;3.63;;;;;;;;;;773424;181;919181;-65
2023/03/14 03:54:33;;;;;;;6.00;4.10;;;;;;;;;;763048;182;923316;-65
2023/03/14 03:56:59;;;;;;;5.93;3.30;;;;;;;;;;762956;182;917481;-68
2023/03/14 03:59:25;;;;;;;10.40;2.97;;;;;;;;;;769228;182;920749;-66
2023/03/14 04:01:51;;;;;;;12.30;3.60;;;;;;;;;;769430;180;919239;-66
2023/03/14 04:04:17;;;;;;;4.47;2.87;;;;;;;;;;772900;180;915556;-67
2023/03/14 04:06:42;;;;;;;4.80;3.40;;;;;;;;;;772279;181;927375;-68
2023/03/14 04:09:08;;;;;;;6.30;3.27;;;;;;;;;;765418;181;914115;-67
2023/03/14 04:11:34;;;;;;;4.60;2.50;;;;;;;;;;773706;180;917006;-68
2023/03/14 04:14:00;;;;;;;9.07;3.60;;;;;;;;;;770610;181;920621;-68
2023/03/14 04:16:26;;;;;;;6.07;3.60;;;;;;;;;;773322;182;920890;-68
2023/03/14 04:18:52;;;;;;;7.13;3.10;;;;;;;;;;769247;181;919223;-67
2023/03/14 04:21:18;;;;;;;8.60;3.90;;;;;;;;;;772630;180;918397;-67
2023/03/14 04:23:43;;;;;;;9.37;4.23;;;;;;;;;;777552;180;920313;-68
2023/03/14 04:26:09;;;;;;;6.37;3.23;;;;;;;;;;774091;180;915577;-66
2023/03/14 04:28:36;;;;;;;5.25;3.28;;;;;;;;;;768116;179;1021842;-66
2023/03/14 04:31:02;;;;;;;6.67;3.90;;;;;;;;;;780354;180;916966;-69
2023/03/14 04:33:27;;;;;;;9.00;3.73;;;;;;;;;;775959;179;638552;-69
2023/03/14 04:35:53;;;;;;;7.80;4.13;;;;;;;;;;771336;181;641396;-68
2023/03/14 04:38:19;;;;;;;6.07;3.77;;;;;;;;;;775821;179;641815;-66
2023/03/14 04:40:45;;;;;;;8.87;4.07;;;;;;;;;;780155;180;653035;-67
2023/03/14 04:43:11;;;;;;;10.53;3.60;;;;;;;;;;768513;180;872212;-68
2023/03/14 04:45:37;;;;;;;4.67;3.40;;;;;;;;;;768863;180;919025;-68
2023/03/14 04:48:03;;;;;;;7.27;3.37;;;;;;;;;;776799;180;919497;-66
2023/03/14 04:50:28;;;;;;;10.27;3.43;;;;;;;;;;771663;180;921806;-66
2023/03/14 04:52:54;;;;;;;6.10;3.13;;;;;;;;;;772243;179;919603;-69
2023/03/14 04:55:20;;;;;;;8.80;4.27;;;;;;;;;;773323;180;919531;-68
2023/03/14 04:57:46;;;;;;;7.73;3.83;;;;;;;;;;770714;181;921726;-68
2023/03/14 05:00:12;;;;;;;6.43;3.40;;;;;;;;;;773394;181;715952;-68
2023/03/14 05:02:38;;;;;;;7.07;4.33;;;;;;;;;;769247;181;921933;-68
2023/03/14 05:05:04;;;;;;;6.57;3.67;;;;;;;;;;759286;183;918442;-67
2023/03/14 05:07:30;;;;;;;7.27;4.10;;;;;;;;;;767069;180;816767;-68
2023/03/14 05:09:56;;;;;;;6.10;3.77;;;;;;;;;;771489;181;814599;-68
2023/03/14 05:12:22;;;;;;;6.80;3.80;;;;;;;;;;777263;181;914338;-67
2023/03/14 05:14:48;;;;;;;6.23;3.63;;;;;;;;;;766941;182;920759;-66
2023/03/14 05:17:14;;;;;;;8.63;3.80;;;;;;;;;;772390;181;918928;-68
2023/03/14 05:19:39;;;;;;;9.60;4.20;;;;;;;;;;775639;180;918115;-67
2023/03/14 05:22:05;;;;;;;8.47;4.60;;;;;;;;;;770062;179;910064;-65
2023/03/14 05:24:31;;;;;;;7.40;4.00;;;;;;;;;;772780;180;647431;-66
2023/03/14 05:26:58;;;;;;;7.60;4.00;;;;;;;;;;775407;181;633805;-65
2023/03/14 05:29:23;;;;;;;8.23;4.53;;;;;;;;;;773043;179;623822;-67
2023/03/14 05:31:49;;;;;;;6.60;4.17;;;;;;;;;;773307;180;624949;-66
2023/03/14 05:34:15;;;;;;;8.83;4.90;;;;;;;;;;771742;181;632329;-66
2023/03/14 05:36:41;;;;;;;6.67;3.93;;;;;;;;;;775728;182;664136;-66
2023/03/14 05:39:07;;;;;;;8.70;4.40;;;;;;;;;;774199;180;916272;-66
2023/03/14 05:41:33;;;;;;;6.30;3.83;;;;;;;;;;769245;180;1133022;-66
2023/03/14 05:43:58;;;;;;;6.77;3.87;;;;;;;;;;770297;182;922503;-66
2023/03/14 05:46:24;;;;;;;6.40;4.00;;;;;;;;;;762926;180;816992;-69
2023/03/14 05:48:50;;;;;;;7.70;4.03;;;;;;;;;;762022;183;818869;-66
2023/03/14 05:51:16;;;;;;;11.03;4.50;;;;;;;;;;766715;180;1121916;-66
2023/03/14 05:53:42;;;;;;;10.30;3.87;;;;;;;;;;765672;181;871337;-68
2023/03/14 05:56:08;;;;;;;8.57;4.90;;;;;;;;;;769799;181;918644;-67
2023/03/14 05:58:34;;;;;;;6.67;4.47;;;;;;;;;;771419;180;908801;-65
2023/03/14 06:01:02;;;;;;;10.80;4.40;;;;;;;;;;778308;180;914260;-66
2023/03/14 06:03:27;;;;;;;9.60;3.97;;;;;;;;;;774929;180;919235;-68
2023/03/14 06:05:53;;;;;;;7.87;4.30;;;;;;;;;;769122;180;920045;-68
2023/03/14 06:08:19;;;;;;;12.37;4.27;;;;;;;;;;772150;181;915433;-68
2023/03/14 06:10:45;;;;;;;8.07;3.40;;;;;;;;;;771735;181;918267;-65
2023/03/14 06:13:11;;;;;;;11.30;5.90;;;;;;;;;;770618;180;916932;-66
2023/03/14 06:15:37;;;;;;;7.10;4.20;;;;;;;;;;772908;180;922388;-66
2023/03/14 06:18:03;;;;;;;7.50;4.10;;;;;;;;;;767188;181;1023609;-66
2023/03/14 06:20:28;;;;;;;12.20;4.83;;;;;;;;;;767016;181;919494;-68
2023/03/14 06:22:54;;;;;;;7.73;4.67;;;;;;;;;;769652;181;816302;-66
2023/03/14 06:25:20;;;;;;;6.20;3.80;;;;;;;;;;775964;181;814354;-68
2023/03/14 06:27:46;;;;;;;8.53;4.60;;;;;;;;;;767363;181;1021150;-68
2023/03/14 06:30:12;;;;;;;9.48;4.45;;;;;;;;;;770572;180;817508;-68
2023/03/14 06:32:38;;;;;;;9.60;4.40;;;;;;;;;;769838;180;919397;-68
2023/03/14 06:35:04;;;;;;;11.60;3.97;;;;;;;;;;776620;179;716184;-66
2023/03/14 06:37:30;;;;;;;7.93;4.77;;;;;;;;;;767850;180;941663;-67
2023/03/14 06:39:56;;;;;;;8.33;3.60;;;;;;;;;;776522;180;918247;-65
2023/03/14 06:42:21;;;;;;;7.37;3.63;;;;;;;;;;769156;179;817094;-66
2023/03/14 06:44:47;;;;;;;8.18;5.03;;;;;;;;;;769915;180;918175;-67
2023/03/14 06:47:13;;;;;;;5.40;3.30;;;;;;;;;;770381;181;935302;-69
2023/03/14 06:49:39;;;;;;;9.30;3.90;;;;;;;;;;767516;180;915527;-67
2023/03/14 06:52:05;;;;;;;9.30;4.33;;;;;;;;;;768007;179;898347;-70
2023/03/14 06:54:31;;;;;;;18.77;5.27;;;;;;;;;;769988;180;907056;-67
2023/03/14 06:56:56;;;;;;;5.03;3.10;;;;;;;;;;777762;180;826708;-69
2023/03/14 06:59:22;;;;;;;7.00;3.40;;;;;;;;;;771033;180;913870;-68
2023/03/14 07:01:50;;;;;;;8.10;3.80;;;;;;;;;;767925;180;913828;-69
2023/03/14 07:04:14;;;;;;;6.10;3.60;;;;;;;;;;776522;180;936060;-69
2023/03/14 07:06:44;;;;;;;7.97;3.60;;;;;;;;;;769448;181;914187;-66
2023/03/14 07:09:06;;;;;;;6.57;3.80;;;;;;;;;;765691;181;916224;-66
2023/03/14 07:11:32;;;;;;;7.43;4.40;;;;;;;;;;773166;180;933895;-69
2023/03/14 07:13:58;;;;;;;6.93;3.43;;;;;;;;;;761802;183;932627;-69
2023/03/14 07:16:24;;;;;;;5.90;3.60;;;;;;;;;;765158;181;919441;-70
2023/03/14 07:18:49;;;;;;;9.80;4.20;;;;;;;;;;770025;181;821191;-67
2023/03/14 07:21:15;;;;;;;7.30;3.50;;;;;;;;;;773392;179;903094;-67
2023/03/14 07:23:41;;;;;;;7.07;3.60;;;;;;;;;;768898;181;859639;-67
2023/03/14 07:26:07;;;;;;;5.10;3.37;;;;;;;;;;768231;181;1005379;-70
2023/03/14 07:28:33;;;;;;;7.10;3.60;;;;;;;;;;775080;181;924193;-67
2023/03/14 07:30:59;;;;;;;7.93;3.23;;;;;;;;;;768627;180;911174;-69
2023/03/14 07:33:24;;;;;;;5.10;2.70;;;;;;;;;;769406;179;916272;-68
2023/03/14 07:35:50;;;;;;;8.00;3.37;;;;;;;;;;772759;179;915420;-67
2023/03/14 07:38:16;;;;;;;5.53;3.53;;;;;;;;;;766141;181;918365;-67
2023/03/14 07:40:42;;;;;;;5.90;3.27;;;;;;;;;;767093;181;931809;-70
2023/03/14 07:43:08;;;;;;;5.33;3.60;;;;;;;;;;767677;181;916359;-69
2023/03/14 07:45:34;;;;;;;6.20;3.00;;;;;;;;;;776034;180;924642;-67
2023/03/14 07:48:01;;;;;;;8.50;3.70;;;;;;;;;;780911;179;920998;-69
2023/03/14 07:50:25;;;;;;;6.13;3.40;;;;;;;;;;770769;180;885541;-69
2023/03/14 07:52:51;;;;;;;7.03;3.47;;;;;;;;;;776712;181;924441;-66
2023/03/14 07:55:17;;;;;;;9.20;5.40;;;;;;;;;;771999;181;918152;-67
2023/03/14 07:57:43;;;;;;;8.03;3.67;;;;;;;;;;770272;181;936767;-70
2023/03/14 08:00:09;;;;;;;5.60;3.43;;;;;;;;;;774215;180;921332;-70
2023/03/14 08:02:36;;;;;;;8.43;4.30;;;;;;;;;;772274;179;817129;-66
2023/03/14 08:05:01;;;;;;;5.33;4.17;;;;;;;;;;769685;179;922424;-72
2023/03/14 08:07:27;;;;;;;6.63;3.23;;;;;;;;;;770007;181;919685;-69
2023/03/14 08:09:53;;;;;;;6.23;3.70;;;;;;;;;;764006;183;916262;-69
2023/03/14 08:12:18;;;;;;;7.03;3.60;;;;;;;;;;771475;180;916731;-69
2023/03/14 08:14:44;;;;;;;6.67;3.83;;;;;;;;;;770281;181;918395;-69
2023/03/14 08:17:10;;;;;;;6.90;3.60;;;;;;;;;;773843;181;919494;-67
2023/03/14 08:19:36;;;;;;;5.37;3.20;;;;;;;;;;771670;181;907223;-66
2023/03/14 08:22:02;;;;;;;9.70;4.40;;;;;;;;;;767364;181;919386;-66
2023/03/14 08:24:28;;;;;;;6.60;3.53;;;;;;;;;;775066;180;914841;-69
2023/03/14 08:26:54;;;;;;;7.83;3.70;;;;;;;;;;770603;180;919024;-66
2023/03/14 08:29:19;;;;;;;6.80;4.20;;;;;;;;;;770894;180;822757;-69
2023/03/14 08:31:45;;;;;;;6.80;3.90;;;;;;;;;;773262;179;918554;-69
2023/03/14 08:34:11;;;;;;;10.63;4.07;;;;;;;;;;769171;181;921445;-67
2023/03/14 08:36:37;;;;;;;5.87;3.53;;;;;;;;;;767194;179;928179;-69
2023/03/14 08:39:03;;;;;;;4.40;3.20;;;;;;;;;;769951;181;915459;-67
2023/03/14 08:41:29;;;;;;;6.63;3.30;;;;;;;;;;775536;180;919346;-69
2023/03/14 08:43:55;;;;;;;6.43;4.00;;;;;;;;;;767847;181;917097;-68
2023/03/14 08:46:20;;;;;;;6.57;3.67;;;;;;;;;;770386;181;910684;-69
2023/03/14 08:48:46;;;;;;;8.87;4.53;;;;;;;;;;775265;181;915724;-66
2023/03/14 08:51:12;;;;;;;6.53;3.77;;;;;;;;;;768267;181;917304;-67
2023/03/14 08:53:38;;;;;;;6.73;4.17;;;;;;;;;;771271;180;918492;-66
2023/03/14 08:56:05;;;;;;;7.03;4.10;;;;;;;;;;772906;180;917781;-67
2023/03/14 08:58:30;;;;;;;5.67;3.87;;;;;;;;;;772209;179;821724;-67
2023/03/14 09:00:56;;;;;;;6.30;3.90;;;;;;;;;;772705;180;918214;-67
2023/03/14 09:03:23;;;;;;;9.30;3.93;;;;;;;;;;772635;180;1021200;-67
2023/03/14 09:05:48;;;;;;;7.70;3.87;;;;;;;;;;772897;181;918171;-67
2023/03/14 09:08:13;;;;;;;11.43;4.47;;;;;;;;;;769846;181;918817;-67
2023/03/14 09:10:39;;;;;;;10.33;4.20;;;;;;;;;;770202;180;1023809;-66
2023/03/14 09:13:05;;;;;;;10.10;4.10;;;;;;;;;;775338;181;816946;-69
2023/03/14 09:15:31;;;;;;;7.90;4.10;;;;;;;;;;769739;180;919436;-66
2023/03/14 09:17:57;;;;;;;5.45;3.75;;;;;;;;;;771984;181;927818;-66
2023/03/14 09:20:23;;;;;;;7.70;3.90;;;;;;;;;;776058;180;918557;-69
2023/03/14 09:22:48;;;;;;;9.50;3.80;;;;;;;;;;768058;179;924365;-69
2023/03/14 09:25:14;;;;;;;8.10;4.70;;;;;;;;;;770642;181;918880;-66
2023/03/14 09:27:40;;;;;;;7.43;4.50;;;;;;;;;;770551;181;913977;-68
2023/03/14 09:30:07;;;;;;;6.95;4.00;;;;;;;;;;774703;179;915872;-66
2023/03/14 09:32:32;;;;;;;10.23;4.17;;;;;;;;;;770064;180;921874;-66
2023/03/14 09:34:58;;;;;;;9.97;4.37;;;;;;;;;;768672;181;903193;-69
2023/03/14 09:37:24;;;;;;;4.87;2.63;;;;;;;;;;775890;181;814283;-68
2023/03/14 09:39:50;;;;;;;5.78;4.18;;;;;;;;;;767406;181;918555;-68
2023/03/14 09:42:16;;;;;;;5.20;3.10;;;;;;;;;;770279;181;919625;-69
2023/03/14 09:44:42;;;;;;;7.43;4.40;;;;;;;;;;773926;181;832009;-66
2023/03/14 09:47:08;;;;;;;15.13;4.50;;;;;;;;;;767758;180;917319;-69
2023/03/14 09:49:34;;;;;;;8.10;5.47;;;;;;;;;;767083;180;917287;-65
2023/03/14 09:52:00;;;;;;;8.67;5.03;;;;;;;;;;770393;181;934596;-68
2023/03/14 09:54:41;;;;;;;9.13;4.60;;;;;;;;;;768409;180;919191;-65
2023/03/14 09:57:07;;;;;;;6.30;4.37;;;;;;;;;;771662;181;925659;-66
2023/03/14 09:59:33;;;;;;;7.70;5.37;;;;;;;;;;764504;181;918243;-66
2023/03/14 10:02:01;;;;;;;7.67;4.77;;;;;;;;;;766992;181;920785;-66
2023/03/14 10:04:27;;;;;;;8.43;5.20;;;;;;;;;;777218;180;918563;-65
2023/03/14 10:06:53;;;;;;;9.37;5.43;;;;;;;;;;769563;181;920516;-70
2023/03/14 10:09:24;;;;;;;8.87;4.90;;;;;;;;;;771584;179;919063;-65
2023/03/14 10:11:46;;;;;;;11.83;5.60;;;;;;;;;;775792;180;918282;-64
2023/03/14 10:14:13;;;;;;;11.47;5.73;;;;;;;;;;770777;180;918478;-63
2023/03/14 10:16:41;;;;;;;11.13;5.20;;;;;;;;;;771542;179;919699;-66
2023/03/14 10:19:06;;;;;;;8.40;4.67;;;;;;;;;;770255;179;823216;-69
2023/03/14 10:21:35;;;;;;;13.83;4.53;;;;;;;;;;773431;180;818709;-65
2023/03/14 10:24:08;;;;;;;6.23;4.53;;;;;;;;;;770436;180;926506;-70
2023/03/14 10:26:33;;;;;;;9.00;4.90;;;;;;;;;;771862;180;821433;-71
2023/03/14 10:29:01;;;;;;;5.57;4.30;;;;;;;;;;770161;181;939228;-69
2023/03/14 10:31:27;;;;;;;12.00;5.10;;;;;;;;;;762692;181;914635;-69
2023/03/14 10:33:57;;;;;;;8.13;4.83;;;;;;;;;;770297;180;919177;-64
2023/03/14 10:36:22;;;;;;;9.27;5.00;;;;;;;;;;767471;180;1025220;-64
2023/03/14 10:38:48;;;;;;;9.10;5.00;;;;;;;;;;771332;180;919272;-70
2023/03/14 10:41:16;;;;;;;8.07;5.13;;;;;;;;;;769027;180;917301;-70
2023/03/14 10:43:42;;;;;;;7.80;4.40;;;;;;;;;;768352;178;907807;-64
2023/03/14 10:46:08;;;;;;;8.53;4.90;;;;;;;;;;767744;181;909005;-70
2023/03/14 10:48:34;;;;;;;7.80;5.50;;;;;;;;;;772123;181;916325;-64
2023/03/14 10:51:10;;;;;;;9.97;5.50;;;;;;;;;;769468;181;916196;-65
2023/03/14 10:53:40;;;;;;;11.25;5.97;;;;;;;;;;769903;180;919151;-71
2023/03/14 10:56:05;;;;;;;11.65;5.45;;;;;;;;;;771478;180;919925;-65
2023/03/14 10:58:31;;;;;;;9.27;5.47;;;;;;;;;;775564;181;1013135;-71
2023/03/14 11:01:01;;;;;;;9.83;6.80;;;;;;;;;;767785;179;921563;-66
2023/03/14 11:03:26;;;;;;;9.50;6.10;;;;;;;;;;769932;181;942373;-73
2023/03/14 11:05:52;;;;;;;10.60;5.37;;;;;;;;;;774724;180;816479;-67
2023/03/14 11:08:20;;;;;;;10.23;6.60;;;;;;;;;;765680;181;919589;-75
2023/03/14 11:10:46;;;;;;;9.93;6.13;;;;;;;;;;766689;181;918723;-74
2023/03/14 11:13:18;;;;;;;10.80;6.40;;;;;;;;;;771662;180;824336;-76
2023/03/14 11:15:47;;;;;;;12.00;7.17;;;;;;;;;;773021;180;928989;-74
2023/03/14 11:18:26;;;;;;;8.83;6.33;;;;;;;;;;769244;181;915643;-76
2023/03/14 11:21:00;;;;;;;11.60;7.50;;;;;;;;;;773057;178;913707;-70
2023/03/14 11:23:28;;;;;;;12.40;6.90;;;;;;;;;;770403;180;917745;-69
2023/03/14 11:25:57;;;;;;;7.60;5.50;;;;;;;;;;770816;180;911219;-74
2023/03/14 11:28:26;;;;;;;10.13;5.85;;;;;;;;;;773926;181;894325;-69
2023/03/14 11:30:53;;;;;;;11.03;6.50;;;;;;;;;;770444;180;915463;-69
2023/03/14 11:33:21;;;;;;;9.40;6.07;;;;;;;;;;770872;180;918838;-75
2023/03/14 11:35:47;;;;;;;9.13;7.60;;;;;;;;;;770745;181;918653;-69
2023/03/14 11:38:13;;;;;;;10.03;7.10;;;;;;;;;;774280;179;919948;-69
2023/03/14 11:40:39;;;;;;;11.10;7.13;;;;;;;;;;768034;181;914374;-68
2023/03/14 11:43:15;;;;;;;9.93;5.97;;;;;;;;;;766598;181;919438;-68
2023/03/14 11:45:40;;;;;;;9.17;5.80;;;;;;;;;;767079;181;920389;-69
2023/03/14 11:48:07;;;;;;;9.13;6.17;;;;;;;;;;777073;181;818232;-68
2023/03/14 11:50:33;;;;;;;9.20;5.90;;;;;;;;;;768053;179;919877;-68
2023/03/14 11:52:59;;;;;;;11.20;5.90;;;;;;;;;;767333;180;949969;-75
2023/03/14 11:55:26;;;;;;;8.43;6.43;;;;;;;;;;774795;179;820933;-68
2023/03/14 11:57:52;;;;;;;10.47;5.50;;;;;;;;;;767094;180;915607;-74
2023/03/14 12:00:20;;;;;;;7.67;5.70;;;;;;;;;;768856;181;918189;-68
2023/03/14 12:02:48;;;;;;;7.00;4.93;;;;;;;;;;770390;180;918726;-69
2023/03/14 12:05:20;;;;;;;8.03;5.03;;;;;;;;;;772673;181;944496;-75
2023/03/14 12:07:52;;;;;;;8.10;5.90;;;;;;;;;;768602;180;919289;-75
2023/03/14 12:10:18;;;;;;;10.10;5.60;;;;;;;;;;769556;180;909424;-77
2023/03/14 12:12:44;;;;;;;11.23;6.10;;;;;;;;;;769206;181;929232;-77
2023/03/14 12:15:10;;;;;;;7.20;5.70;;;;;;;;;;775016;180;920246;-69
2023/03/14 12:17:36;;;;;;;7.22;4.82;;;;;;;;;;769238;179;913975;-77
2023/03/14 12:20:05;;;;;;;7.30;4.90;;;;;;;;;;765921;181;920284;-77
2023/03/14 12:22:28;;;;;;;8.70;5.90;;;;;;;;;;773784;181;1029215;-78
2023/03/14 12:24:55;;;;;;;7.90;5.33;;;;;;;;;;769422;180;920480;-69
2023/03/14 12:27:27;;;;;;;7.50;4.78;;;;;;;;;;770280;181;939846;-68
2023/03/14 12:29:57;;;;;;;6.23;5.00;;;;;;;;;;772588;180;920000;-67
2023/03/14 12:32:23;;;;;;;7.22;4.80;;;;;;;;;;775237;180;1018876;-69
2023/03/14 12:34:49;;;;;;;5.80;4.30;;;;;;;;;;770853;180;1013525;-78
2023/03/14 12:37:17;;;;;;;5.73;4.20;;;;;;;;;;767992;181;1024838;-78
2023/03/14 12:39:46;;;;;;;5.80;4.50;;;;;;;;;;769611;181;922380;-76
2023/03/14 12:42:13;;;;;;;6.73;4.80;;;;;;;;;;778097;181;806026;-77
2023/03/14 12:44:43;;;;;;;5.00;3.77;;;;;;;;;;769648;181;918131;-77
2023/03/14 12:47:24;;;;;;;5.60;4.00;;;;;;;;;;769675;181;1018896;-69
2023/03/14 12:49:50;;;;;;;6.17;4.57;;;;;;;;;;766510;181;906908;-77
2023/03/14 12:52:17;;;;;;;5.30;4.27;;;;;;;;;;775831;180;915053;-69
2023/03/14 12:54:43;;;;;;;9.37;5.33;;;;;;;;;;767533;183;951068;-77
2023/03/14 12:57:13;;;;;;;9.83;4.47;;;;;;;;;;767517;181;919807;-70
2023/03/14 12:59:54;;;;;;;8.15;5.35;;;;;;;;;;769267;181;909839;-70
2023/03/14 13:02:23;;;;;;;8.00;5.50;;;;;;;;;;763267;181;1018935;-80
2023/03/14 13:05:04;;;;;;;7.77;5.70;;;;;;;;;;774627;180;918596;-80
2023/03/14 13:07:32;;;;;;;6.83;4.87;;;;;;;;;;768718;180;918095;-80
2023/03/14 13:10:08;;;;;;;8.20;4.70;;;;;;;;;;771500;180;898910;-69
2023/03/14 13:12:35;;;;;;;8.17;6.00;;;;;;;;;;768082;179;1001396;-70
2023/03/14 13:15:02;;;;;;;6.70;4.70;;;;;;;;;;770897;181;911535;-70
2023/03/14 13:17:27;;;;;;;8.07;5.60;;;;;;;;;;772284;181;919986;-69
2023/03/14 13:19:53;;;;;;;7.70;5.33;;;;;;;;;;770620;180;919978;-70
2023/03/14 13:22:19;;;;;;;6.35;4.20;;;;;;;;;;769794;181;918785;-69
2023/03/14 13:24:45;;;;;;;9.77;6.47;;;;;;;;;;769624;181;920432;-69
2023/03/14 13:27:18;;;;;;;8.40;5.00;;;;;;;;;;765522;180;809345;-69
2023/03/14 13:29:43;;;;;;;7.97;5.40;;;;;;;;;;767413;179;919413;-77
2023/03/14 13:32:11;;;;;;;7.43;4.40;;;;;;;;;;767229;180;937247;-68
2023/03/14 13:34:36;;;;;;;9.40;6.57;;;;;;;;;;774459;181;933442;-77
2023/03/14 13:37:02;;;;;;;9.83;5.40;;;;;;;;;;766908;181;1120291;-78
2023/03/14 13:39:29;;;;;;;12.97;6.90;;;;;;;;;;771323;180;920527;-75
2023/03/14 13:41:54;;;;;;;11.93;7.23;;;;;;;;;;768634;181;919950;-68
2023/03/14 13:44:26;;;;;;;6.97;5.27;;;;;;;;;;769931;179;876750;-77
2023/03/14 13:46:51;;;;;;;10.07;6.10;;;;;;;;;;772235;179;814820;-75
2023/03/14 13:49:18;;;;;;;8.80;5.87;;;;;;;;;;770330;180;919172;-68
2023/03/14 13:51:44;;;;;;;7.17;6.27;;;;;;;;;;776345;180;917932;-77
2023/03/14 13:54:12;;;;;;;8.63;5.23;;;;;;;;;;769636;178;934737;-67
2023/03/14 13:56:37;;;;;;;10.88;5.32;;;;;;;;;;767893;180;1021251;-77
2023/03/14 13:59:03;;;;;;;8.23;5.00;;;;;;;;;;770126;181;920935;-76
2023/03/14 14:01:34;;;;;;;9.37;5.27;;;;;;;;;;776157;181;903678;-77
2023/03/14 14:04:02;;;;;;;7.37;4.87;;;;;;;;;;767820;181;915937;-79
2023/03/14 14:06:36;;;;;;;7.47;6.00;;;;;;;;;;775626;170;917703;-71
2023/03/14 14:09:02;;;;;;;7.67;5.50;;;;;;;;;;771169;179;916502;-71
2023/03/14 14:11:28;;;;;;;7.28;5.30;;;;;;;;;;771331;179;815066;-72
2023/03/14 14:13:53;;;;;;;8.90;5.97;;;;;;;;;;767116;180;919702;-71
2023/03/14 14:16:19;;;;;;;6.57;4.90;;;;;;;;;;769427;180;914335;-71
2023/03/14 14:18:45;;;;;;;7.37;4.33;;;;;;;;;;774313;180;882962;-72
2023/03/14 14:21:12;;;;;;;6.23;4.80;;;;;;;;;;768546;180;920520;-71
2023/03/14 14:23:38;;;;;;;8.23;5.07;;;;;;;;;;768916;180;919442;-71